Time;durP1;ratioP1;P1;durP2;ratioP2;P2;SDS_P1;SDS_P2;PMS_P1;PMS_P2;Temp;Humidity;BMP_temperature;BMP_pressure;BME280_temperature;BME280_humidity;BME280_pressure;Samples;Min_cycle;Max_cycle;Signal;HPM_P1;HPM_P2
2022/07/14 00:02:21;;;;;;;2.80;1.10;;;24.00;78.90;;;;;;5033722;28;20611;-76
2022/07/14 00:04:47;;;;;;;2.70;1.40;;;23.90;79.40;;;;;;5032975;28;20620;-76
2022/07/14 00:07:13;;;;;;;3.00;1.30;;;23.90;79.70;;;;;;5032063;28;20672;-76
2022/07/14 00:09:39;;;;;;;4.80;1.60;;;23.90;80.10;;;;;;5032990;28;20228;-77
2022/07/14 00:12:05;;;;;;;2.17;1.33;;;23.90;80.70;;;;;;5033434;28;20208;-76
2022/07/14 00:14:31;;;;;;;1.93;1.33;;;23.90;81.20;;;;;;5031525;28;20600;-77
2022/07/14 00:16:57;;;;;;;3.67;1.17;;;23.90;81.90;;;;;;5033547;28;20568;-77
2022/07/14 00:19:23;;;;;;;2.80;1.27;;;23.90;82.30;;;;;;5033163;28;20560;-77
2022/07/14 00:21:49;;;;;;;4.53;1.93;;;23.90;83.20;;;;;;5048395;28;20608;-77
2022/07/14 00:24:14;;;;;;;3.23;1.70;;;23.80;83.70;;;;;;5032799;28;20275;-77
2022/07/14 00:26:40;;;;;;;5.23;1.30;;;23.80;84.60;;;;;;5033142;28;20173;-77
2022/07/14 00:29:07;;;;;;;6.70;1.67;;;23.80;85.90;;;;;;5015209;28;20239;-77
2022/07/14 00:31:34;;;;;;;3.80;1.43;;;23.70;85.80;;;;;;5031617;28;20623;-77
2022/07/14 00:34:01;;;;;;;4.30;1.50;;;23.70;86.20;;;;;;5014785;28;20608;-77
2022/07/14 00:36:28;;;;;;;3.97;1.60;;;23.70;86.90;;;;;;5032944;28;20630;-77
2022/07/14 00:38:56;;;;;;;2.90;1.43;;;23.60;87.20;;;;;;5031693;28;20565;-77
2022/07/14 00:41:22;;;;;;;6.63;3.57;;;23.60;87.90;;;;;;5032325;28;20615;-77
2022/07/14 00:43:47;;;;;;;3.37;2.43;;;23.60;88.40;;;;;;5031331;28;20608;-77
2022/07/14 00:46:13;;;;;;;3.77;1.87;;;23.50;88.90;;;;;;5014415;28;20638;-77
2022/07/14 00:48:39;;;;;;;3.50;2.10;;;23.50;89.60;;;;;;5032781;28;20169;-77
2022/07/14 00:51:05;;;;;;;4.80;2.07;;;23.40;90.00;;;;;;5030994;28;20616;-77
2022/07/14 00:53:31;;;;;;;4.70;2.20;;;23.40;90.30;;;;;;5032575;28;20923;-77
2022/07/14 00:55:57;;;;;;;3.20;1.80;;;23.30;90.60;;;;;;5030841;28;20638;-76
2022/07/14 00:58:23;;;;;;;4.67;1.50;;;23.30;91.20;;;;;;5032194;28;20174;-76
2022/07/14 01:00:49;;;;;;;3.73;1.63;;;23.20;91.10;;;;;;5032036;28;20590;-76
2022/07/14 01:03:15;;;;;;;4.80;1.80;;;23.20;91.40;;;;;;5032330;28;20988;-76
2022/07/14 01:05:41;;;;;;;3.03;2.23;;;23.20;91.70;;;;;;5030474;28;20662;-77
2022/07/14 01:08:07;;;;;;;7.00;1.97;;;23.10;91.90;;;;;;5032284;28;20672;-77
2022/07/14 01:10:33;;;;;;;4.17;1.77;;;23.10;92.20;;;;;;5030855;28;21188;-77
2022/07/14 01:13:03;;;;;;;3.40;1.33;;;23.10;92.40;;;;;;5031892;28;20292;-75
2022/07/14 01:15:29;;;;;;;7.37;2.07;;;23.00;92.80;;;;;;5031616;28;20627;-75
2022/07/14 01:17:56;;;;;;;2.67;1.67;;;23.00;92.90;;;;;;5030999;28;20595;-75
2022/07/14 01:20:23;;;;;;;3.80;2.43;;;23.00;93.10;;;;;;5030182;28;20564;-75
2022/07/14 01:22:52;;;;;;;4.20;2.63;;;23.00;93.40;;;;;;5031141;28;20567;-75
2022/07/14 01:25:19;;;;;;;3.00;2.00;;;23.00;93.70;;;;;;5031422;28;20627;-74
2022/07/14 01:27:45;;;;;;;8.93;2.60;;;22.90;93.80;;;;;;5032092;28;20583;-74
2022/07/14 01:30:12;;;;;;;3.57;2.10;;;22.90;94.00;;;;;;5031596;28;20569;-74
2022/07/14 01:32:38;;;;;;;5.33;2.23;;;22.90;94.20;;;;;;5030720;28;20646;-74
2022/07/14 01:35:04;;;;;;;5.67;2.60;;;22.90;94.40;;;;;;5030199;28;20596;-74
2022/07/14 01:37:31;;;;;;;5.43;1.70;;;22.80;94.60;;;;;;5030607;28;20170;-74
2022/07/14 01:39:57;;;;;;;3.67;1.77;;;22.80;94.70;;;;;;5031525;28;20715;-74
2022/07/14 01:42:25;;;;;;;4.53;1.70;;;22.80;95.00;;;;;;5030219;28;20923;-74
2022/07/14 01:44:51;;;;;;;4.63;2.30;;;22.70;95.10;;;;;;5029891;28;20611;-74
2022/07/14 01:47:16;;;;;;;3.97;1.90;;;22.70;95.20;;;;;;5030558;28;20983;-74
2022/07/14 01:49:42;;;;;;;3.47;1.43;;;22.70;95.40;;;;;;5030092;28;20235;-74
2022/07/14 01:52:09;;;;;;;3.30;2.07;;;22.70;95.50;;;;;;5030475;28;20646;-74
2022/07/14 01:54:37;;;;;;;3.77;1.97;;;22.70;95.70;;;;;;5029577;28;20632;-74
2022/07/14 01:57:03;;;;;;;4.37;1.70;;;22.70;95.80;;;;;;5030325;28;21119;-74
2022/07/14 01:59:30;;;;;;;4.13;1.63;;;22.60;95.90;;;;;;5030188;28;20261;-74
2022/07/14 02:01:58;;;;;;;6.20;1.90;;;22.60;96.00;;;;;;5030122;28;20573;-74
2022/07/14 02:04:24;;;;;;;5.33;2.10;;;22.60;96.20;;;;;;5029520;28;20734;-74
2022/07/14 02:06:52;;;;;;;4.90;1.40;;;22.50;96.30;;;;;;5030428;28;20652;-74
2022/07/14 02:12:43;;;;;;;4.17;2.10;;;22.50;96.60;;;;;;5030315;28;21088;-74
2022/07/14 02:15:11;;;;;;;3.83;1.70;;;22.50;96.80;;;;;;5029625;28;20639;-74
2022/07/14 02:17:37;;;;;;;5.67;2.03;;;22.40;97.10;;;;;;5030176;28;20626;-74
2022/07/14 02:20:04;;;;;;;7.00;2.60;;;22.40;97.40;;;;;;5029653;28;20592;-74
2022/07/14 02:22:30;;;;;;;3.53;1.93;;;22.40;97.60;;;;;;5030068;28;20569;-74
2022/07/14 02:24:56;;;;;;;3.97;2.10;;;22.30;97.80;;;;;;5029259;28;21143;-74
2022/07/14 02:27:23;;;;;;;4.90;2.20;;;22.30;98.10;;;;;;5030105;28;20671;-74
2022/07/14 02:29:51;;;;;;;7.27;2.03;;;22.20;98.30;;;;;;5029581;28;20567;-74
2022/07/14 02:32:17;;;;;;;9.60;1.90;;;22.20;98.60;;;;;;5015532;28;21194;-74
2022/07/14 02:34:46;;;;;;;4.00;2.10;;;22.20;98.80;;;;;;5033593;28;20548;-74
2022/07/14 02:37:14;;;;;;;4.50;2.33;;;22.10;99.00;;;;;;5035130;28;20599;-74
2022/07/14 02:39:40;;;;;;;4.83;2.70;;;22.10;99.20;;;;;;5033485;28;20564;-74
2022/07/14 02:42:06;;;;;;;5.57;2.43;;;22.00;99.40;;;;;;5035387;28;20667;-74
2022/07/14 02:44:33;;;;;;;5.87;2.33;;;21.90;99.60;;;;;;5033174;28;20608;-75
2022/07/14 02:46:59;;;;;;;8.97;3.10;;;21.90;99.80;;;;;;5033843;28;20942;-76
2022/07/14 02:49:25;;;;;;;9.70;1.87;;;21.90;99.90;;;;;;5033765;28;20579;-75
2022/07/14 02:51:52;;;;;;;5.83;2.23;;;21.90;99.90;;;;;;5016755;28;20624;-75
2022/07/14 02:54:18;;;;;;;8.33;2.93;;;21.80;99.90;;;;;;5034168;28;20908;-75
2022/07/14 02:56:47;;;;;;;4.50;2.90;;;21.80;99.90;;;;;;5033752;28;20575;-75
2022/07/14 02:59:12;;;;;;;6.23;2.00;;;21.80;99.90;;;;;;5033839;28;20572;-75
2022/07/14 03:01:42;;;;;;;5.60;2.13;;;21.80;99.90;;;;;;5033241;28;20178;-76
2022/07/14 03:04:13;;;;;;;4.13;2.50;;;21.70;99.90;;;;;;5032973;28;20656;-75
2022/07/14 03:06:39;;;;;;;4.83;2.00;;;21.70;99.90;;;;;;5016970;28;20702;-75
2022/07/14 03:09:08;;;;;;;7.80;2.10;;;21.70;99.90;;;;;;5016935;28;20583;-75
2022/07/14 03:11:34;;;;;;;7.70;2.90;;;21.60;99.90;;;;;;5033008;28;20638;-75
2022/07/14 03:14:00;;;;;;;6.77;2.40;;;21.60;99.90;;;;;;5032998;28;20607;-75
2022/07/14 03:16:26;;;;;;;9.63;1.83;;;21.60;99.90;;;;;;5016987;28;20560;-75
2022/07/14 03:18:55;;;;;;;6.77;2.33;;;21.60;99.90;;;;;;5033832;28;20628;-75
2022/07/14 03:21:22;;;;;;;4.23;1.77;;;21.60;99.90;;;;;;5034038;28;21038;-75
2022/07/14 03:23:52;;;;;;;8.43;2.10;;;21.60;99.90;;;;;;5033418;28;21183;-75
2022/07/14 03:26:22;;;;;;;7.60;2.20;;;21.50;99.90;;;;;;5032723;28;20561;-74
2022/07/14 03:28:48;;;;;;;4.80;2.73;;;21.50;99.90;;;;;;5038578;28;20596;-75
2022/07/14 03:31:15;;;;;;;5.20;2.20;;;21.50;99.90;;;;;;5037471;28;20615;-74
2022/07/14 03:33:41;;;;;;;9.97;2.03;;;21.50;99.90;;;;;;5040841;28;20568;-74
2022/07/14 03:36:08;;;;;;;8.00;2.00;;;21.50;99.90;;;;;;5042842;28;20572;-74
2022/07/14 03:38:35;;;;;;;7.03;2.50;;;21.50;99.90;;;;;;5036697;28;20604;-74
2022/07/14 03:41:03;;;;;;;5.97;2.10;;;21.50;99.90;;;;;;5016278;28;20939;-74
2022/07/14 03:43:29;;;;;;;6.13;2.27;;;21.50;99.90;;;;;;5032322;28;20572;-75
2022/07/14 03:45:56;;;;;;;5.30;2.10;;;21.50;99.90;;;;;;5015477;28;20612;-74
2022/07/14 03:48:23;;;;;;;5.30;2.20;;;21.40;99.90;;;;;;5032743;28;20604;-74
2022/07/14 03:50:55;;;;;;;8.80;3.37;;;21.40;99.90;;;;;;5032260;28;20564;-74
2022/07/14 03:53:22;;;;;;;7.60;2.80;;;21.40;99.90;;;;;;5032495;28;20576;-74
2022/07/14 03:55:48;;;;;;;6.17;2.13;;;21.40;99.90;;;;;;5015689;28;20657;-74
2022/07/14 03:58:14;;;;;;;7.20;2.73;;;21.30;99.90;;;;;;5032432;28;20600;-74
2022/07/14 04:00:41;;;;;;;4.90;2.30;;;21.30;99.90;;;;;;5031664;28;20641;-75
2022/07/14 04:03:07;;;;;;;5.83;2.33;;;21.30;99.90;;;;;;5031951;28;20675;-74
2022/07/14 04:05:32;;;;;;;6.00;2.10;;;21.30;99.90;;;;;;5032502;28;20742;-74
2022/07/14 04:08:09;;;;;;;3.90;2.20;;;21.20;99.90;;;;;;5032306;28;20215;-74
2022/07/14 04:10:43;;;;;;;5.93;2.20;;;21.20;99.90;;;;;;5031632;28;20572;-74
2022/07/14 04:13:10;;;;;;;7.50;2.27;;;21.20;99.90;;;;;;5032169;28;20577;-75
2022/07/14 04:15:39;;;;;;;8.40;1.83;;;21.20;99.90;;;;;;5031455;28;20216;-75
2022/07/14 04:18:05;;;;;;;6.93;1.60;;;21.10;99.90;;;;;;5031752;28;20592;-75
2022/07/14 04:20:31;;;;;;;6.50;3.03;;;21.10;99.90;;;;;;5031512;28;20585;-75
2022/07/14 04:22:58;;;;;;;4.43;1.83;;;21.10;99.90;;;;;;5031862;28;20695;-75
2022/07/14 04:25:25;;;;;;;6.70;2.43;;;21.10;99.90;;;;;;5048021;28;20612;-75
2022/07/14 04:27:52;;;;;;;6.87;2.07;;;21.10;99.90;;;;;;5031903;28;20575;-75
2022/07/14 04:30:18;;;;;;;3.97;1.97;;;21.10;99.90;;;;;;5031680;28;21119;-75
2022/07/14 04:32:44;;;;;;;10.47;2.80;;;21.10;99.90;;;;;;5032089;28;20643;-75
2022/07/14 04:35:13;;;;;;;6.57;2.57;;;21.10;99.90;;;;;;5030956;28;20607;-76
2022/07/14 04:37:39;;;;;;;7.40;2.90;;;21.10;99.90;;;;;;5031857;28;20587;-76
2022/07/14 04:40:16;;;;;;;5.83;2.73;;;21.10;99.90;;;;;;5031468;28;20673;-75
2022/07/14 04:42:41;;;;;;;4.50;2.30;;;21.10;99.90;;;;;;5031671;28;20611;-76
2022/07/14 04:45:10;;;;;;;5.60;1.90;;;21.10;99.90;;;;;;5030984;28;20612;-75
2022/07/14 04:47:36;;;;;;;9.40;2.30;;;21.20;99.90;;;;;;5031470;28;20695;-76
2022/07/14 04:52:48;;;;;;;5.30;2.20;;;21.20;99.90;;;;;;5031404;28;20259;-76
2022/07/14 04:55:33;;;;;;;5.00;2.07;;;21.20;99.90;;;;;;5031219;28;20691;-76
2022/07/14 04:58:25;;;;;;;4.40;2.27;;;21.20;99.90;;;;;;5031567;28;20596;-76
2022/07/14 05:00:58;;;;;;;7.77;2.43;;;21.20;99.90;;;;;;5030881;28;20591;-76
2022/07/14 05:03:25;;;;;;;4.17;2.47;;;21.20;99.90;;;;;;5030866;28;20948;-76
2022/07/14 05:05:52;;;;;;;5.03;2.03;;;21.20;99.90;;;;;;5030663;28;21072;-76
2022/07/14 05:08:18;;;;;;;10.73;2.50;;;21.20;99.90;;;;;;5031495;28;20575;-76
2022/07/14 05:10:46;;;;;;;7.10;2.60;;;21.20;99.90;;;;;;5030820;28;20616;-76
2022/07/14 05:13:12;;;;;;;5.80;2.10;;;21.20;99.90;;;;;;5014651;28;20666;-75
2022/07/14 05:15:38;;;;;;;7.43;2.63;;;21.20;99.90;;;;;;5030579;28;20193;-76
2022/07/14 05:18:04;;;;;;;6.53;2.33;;;21.30;99.90;;;;;;5014305;28;20581;-76
2022/07/14 05:20:30;;;;;;;7.50;3.00;;;21.30;99.90;;;;;;5030542;28;20581;-76
2022/07/14 05:22:56;;;;;;;6.43;2.00;;;21.30;99.90;;;;;;5030843;28;20169;-76
2022/07/14 05:25:22;;;;;;;6.03;2.90;;;21.30;99.90;;;;;;5030242;28;20200;-76
2022/07/14 05:27:48;;;;;;;9.70;2.40;;;21.30;99.90;;;;;;5030881;28;20584;-76
2022/07/14 05:30:24;;;;;;;5.93;2.03;;;21.30;99.90;;;;;;5030540;28;20243;-76
2022/07/14 05:32:50;;;;;;;8.53;3.00;;;21.40;99.90;;;;;;5030433;28;20996;-76
2022/07/14 05:35:15;;;;;;;7.20;2.37;;;21.40;99.90;;;;;;5031433;28;20650;-75
2022/07/14 05:37:41;;;;;;;5.93;2.13;;;21.40;99.90;;;;;;5030887;28;20178;-75
2022/07/14 05:40:08;;;;;;;6.37;2.20;;;21.40;99.90;;;;;;5030556;28;20585;-75
2022/07/14 05:42:34;;;;;;;8.13;2.40;;;21.50;99.90;;;;;;5030601;28;20676;-75
2022/07/14 05:45:00;;;;;;;7.70;1.80;;;21.50;99.90;;;;;;5030272;28;20622;-75
2022/07/14 05:47:26;;;;;;;6.53;2.40;;;21.50;99.90;;;;;;5030711;28;20264;-76
2022/07/14 05:49:52;;;;;;;3.70;1.50;;;21.60;99.90;;;;;;5013687;28;21005;-75
2022/07/14 05:52:18;;;;;;;4.40;1.90;;;21.70;99.90;;;;;;5014048;28;20292;-75
2022/07/14 05:54:43;;;;;;;7.93;2.23;;;21.70;99.90;;;;;;5031130;28;20276;-75
2022/07/14 05:57:09;;;;;;;5.43;2.33;;;21.70;99.90;;;;;;5030565;28;20790;-75
2022/07/14 05:59:35;;;;;;;7.80;2.60;;;21.80;99.90;;;;;;5013717;28;20182;-75
2022/07/14 06:02:03;;;;;;;6.17;2.53;;;21.80;99.90;;;;;;5030251;28;20572;-75
2022/07/14 06:04:30;;;;;;;9.30;2.43;;;21.80;99.90;;;;;;5029628;28;20616;-76
2022/07/14 06:06:58;;;;;;;6.10;2.23;;;21.80;99.90;;;;;;5030322;28;20610;-76
2022/07/14 06:09:24;;;;;;;11.90;2.70;;;21.90;99.90;;;;;;5030264;28;20679;-75
2022/07/14 06:11:50;;;;;;;3.93;1.73;;;21.90;99.90;;;;;;5031148;28;20201;-75
2022/07/14 06:14:16;;;;;;;10.07;2.20;;;21.90;99.90;;;;;;5029561;28;20197;-75
2022/07/14 06:16:43;;;;;;;5.67;1.90;;;22.00;99.90;;;;;;5029930;28;20671;-75
2022/07/14 06:19:09;;;;;;;4.97;2.13;;;22.00;99.90;;;;;;5030132;28;20580;-75
2022/07/14 06:21:36;;;;;;;7.00;2.83;;;22.10;99.90;;;;;;5030139;28;20580;-75
2022/07/14 06:24:04;;;;;;;6.97;2.10;;;22.10;99.90;;;;;;5029829;28;20596;-76
2022/07/14 06:26:30;;;;;;;8.43;2.20;;;22.20;99.90;;;;;;5030395;28;20576;-76
2022/07/14 06:28:56;;;;;;;7.60;2.10;;;22.20;99.90;;;;;;5030098;28;20588;-75
2022/07/14 06:31:21;;;;;;;8.53;3.20;;;22.30;99.90;;;;;;5029745;28;20615;-75
2022/07/14 06:33:47;;;;;;;6.43;2.67;;;22.40;99.90;;;;;;5013479;28;20185;-75
2022/07/14 06:36:33;;;;;;;4.50;1.80;;;22.40;99.90;;;;;;5030120;28;20178;-76
2022/07/14 06:38:59;;;;;;;8.77;2.93;;;22.50;99.90;;;;;;5013340;28;20580;-75
2022/07/14 06:41:26;;;;;;;9.83;3.27;;;22.60;99.90;;;;;;5029662;28;20659;-76
2022/07/14 06:43:52;;;;;;;7.20;2.07;;;22.60;99.90;;;;;;5029693;28;20965;-76
2022/07/14 06:46:18;;;;;;;8.97;2.60;;;22.70;99.90;;;;;;5029435;28;20227;-75
2022/07/14 06:48:44;;;;;;;8.40;3.17;;;22.80;99.90;;;;;;5031253;28;20182;-76
2022/07/14 06:51:10;;;;;;;8.10;2.17;;;22.90;99.90;;;;;;5012886;28;20631;-76
2022/07/14 06:53:36;;;;;;;12.67;2.33;;;22.90;99.90;;;;;;5031157;28;20615;-75
2022/07/14 06:56:02;;;;;;;6.20;2.27;;;23.10;99.90;;;;;;5030661;28;21119;-76
2022/07/14 06:58:28;;;;;;;4.87;2.20;;;23.10;99.90;;;;;;5031151;28;20581;-76
2022/07/14 07:00:54;;;;;;;9.90;3.13;;;23.20;99.90;;;;;;5029163;28;20916;-75
2022/07/14 07:03:19;;;;;;;6.20;2.40;;;23.30;99.90;;;;;;5031122;28;20550;-76
2022/07/14 07:08:29;;;;;;;8.73;2.80;;;23.40;99.90;;;;;;5030974;28;20169;-75
2022/07/14 07:10:56;;;;;;;4.50;2.10;;;23.50;99.90;;;;;;5029320;28;20577;-76
2022/07/14 07:13:23;;;;;;;4.43;1.90;;;23.60;99.90;;;;;;5030690;28;20169;-76
2022/07/14 07:15:49;;;;;;;4.40;2.07;;;23.70;99.90;;;;;;5030264;28;20592;-76
2022/07/14 07:18:14;;;;;;;8.63;2.50;;;23.80;99.90;;;;;;5031176;28;20572;-76
2022/07/14 07:20:40;;;;;;;7.63;2.73;;;24.00;99.90;;;;;;5033098;28;20189;-76
2022/07/14 07:23:06;;;;;;;10.70;2.50;;;24.10;99.90;;;;;;5034508;28;20654;-76
2022/07/14 07:25:32;;;;;;;7.00;2.47;;;24.30;99.90;;;;;;5033025;28;20233;-77
2022/07/14 07:28:01;;;;;;;7.63;2.10;;;24.60;99.90;;;;;;5034369;28;20169;-77
2022/07/14 07:30:28;;;;;;;5.30;2.23;;;24.70;99.90;;;;;;5034453;28;20964;-76
2022/07/14 07:32:54;;;;;;;9.00;2.60;;;24.90;99.90;;;;;;5034690;28;20658;-77
2022/07/14 07:35:20;;;;;;;4.67;1.53;;;25.00;99.90;;;;;;5035281;28;20600;-77
2022/07/14 07:37:46;;;;;;;5.60;2.17;;;25.00;99.90;;;;;;5033170;28;20971;-76
2022/07/14 07:40:12;;;;;;;9.87;2.37;;;25.10;99.90;;;;;;5033887;28;20169;-77
2022/07/14 07:42:38;;;;;;;7.53;3.00;;;25.20;99.90;;;;;;5032884;28;20622;-77
2022/07/14 07:45:04;;;;;;;5.20;2.60;;;25.20;99.90;;;;;;5033501;28;20960;-77
2022/07/14 07:47:30;;;;;;;6.67;2.23;;;25.40;99.90;;;;;;5034095;28;20182;-77
2022/07/14 07:49:56;;;;;;;5.70;1.73;;;25.50;99.90;;;;;;5033691;28;20588;-77
2022/07/14 07:52:22;;;;;;;9.10;2.73;;;25.70;99.90;;;;;;5033972;28;20205;-77
2022/07/14 07:54:48;;;;;;;6.00;2.80;;;26.00;99.90;;;;;;5031895;28;20597;-77
2022/07/14 07:57:14;;;;;;;10.03;2.10;;;26.20;99.90;;;;;;5033701;28;20638;-77
2022/07/14 07:59:40;;;;;;;8.73;2.10;;;26.50;99.90;;;;;;5033488;28;20600;-77
2022/07/14 08:02:06;;;;;;;5.50;2.03;;;26.80;99.90;;;;;;5033581;28;20604;-77
2022/07/14 08:04:32;;;;;;;5.77;1.93;;;27.20;99.90;;;;;;5033025;28;20213;-77
2022/07/14 08:06:58;;;;;;;5.77;2.10;;;27.80;99.90;;;;;;5033695;28;20169;-77
2022/07/14 08:09:24;;;;;;;4.77;1.83;;;28.30;99.90;;;;;;5033616;28;20583;-77
2022/07/14 08:11:50;;;;;;;5.13;1.50;;;28.70;99.90;;;;;;5034299;28;20639;-77
2022/07/14 08:17:01;;;;;;;5.97;1.50;;;29.00;99.10;;;;;;5015765;28;20173;-77
2022/07/14 08:19:27;;;;;;;7.90;1.50;;;29.00;98.10;;;;;;5033493;28;20569;-77
2022/07/14 08:21:53;;;;;;;4.83;1.40;;;28.80;97.10;;;;;;5033136;28;20683;-77
2022/07/14 08:24:19;;;;;;;5.50;1.67;;;28.70;96.70;;;;;;5032919;28;21073;-77
2022/07/14 08:26:46;;;;;;;5.63;1.83;;;28.70;96.70;;;;;;5033146;28;20601;-77
2022/07/14 08:29:12;;;;;;;6.93;2.50;;;28.80;96.80;;;;;;5031836;28;20172;-76
2022/07/14 08:31:38;;;;;;;4.60;1.17;;;29.20;97.40;;;;;;5032987;28;20617;-77
2022/07/14 08:34:04;;;;;;;3.87;0.90;;;29.70;96.00;;;;;;5032716;28;20595;-77
2022/07/14 08:36:30;;;;;;;3.60;0.80;;;30.10;94.90;;;;;;5015646;28;20181;-77
2022/07/14 08:38:57;;;;;;;3.40;1.00;;;30.70;93.60;;;;;;5033229;28;20263;-77
2022/07/14 08:41:23;;;;;;;4.07;1.03;;;31.30;92.50;;;;;;5032594;28;20573;-77
2022/07/14 08:43:51;;;;;;;4.60;1.43;;;32.00;90.60;;;;;;5032965;28;20919;-77
2022/07/14 08:46:18;;;;;;;2.50;0.90;;;32.70;90.50;;;;;;5031139;28;20627;-76
2022/07/14 08:48:46;;;;;;;3.53;1.07;;;33.40;88.00;;;;;;5033990;28;20627;-76
2022/07/14 08:51:12;;;;;;;4.53;0.90;;;33.90;82.90;;;;;;5032457;28;20585;-76
2022/07/14 08:53:38;;;;;;;3.23;0.90;;;34.40;80.40;;;;;;5031331;28;20583;-77
2022/07/14 08:56:04;;;;;;;2.30;0.80;;;34.70;74.40;;;;;;5032151;28;20560;-77
2022/07/14 08:58:30;;;;;;;2.70;0.90;;;34.90;69.20;;;;;;5032876;28;20576;-77
2022/07/14 09:00:58;;;;;;;3.60;1.00;;;34.90;64.90;;;;;;5032501;28;20592;-77
2022/07/14 09:03:23;;;;;;;3.80;1.43;;;34.80;63.20;;;;;;5032609;28;20658;-77
2022/07/14 09:05:49;;;;;;;2.80;0.83;;;34.80;63.20;;;;;;5031050;28;20714;-77
2022/07/14 09:08:17;;;;;;;2.80;0.80;;;34.90;62.00;;;;;;5031465;28;20204;-77
2022/07/14 09:10:44;;;;;;;3.20;0.70;;;34.80;59.90;;;;;;5032031;28;20180;-77
2022/07/14 09:13:15;;;;;;;3.40;1.00;;;34.80;58.70;;;;;;5032503;28;20657;-77
2022/07/14 09:15:47;;;;;;;3.10;0.80;;;34.70;57.70;;;;;;5032363;28;21353;-77
2022/07/14 09:18:24;;;;;;;3.73;1.10;;;34.70;57.20;;;;;;5032443;28;20566;-76
2022/07/14 09:20:53;;;;;;;3.20;1.10;;;34.50;56.60;;;;;;5032023;28;20597;-75
2022/07/14 09:23:35;;;;;;;3.70;0.90;;;34.50;55.80;;;;;;5032331;28;20895;-76
2022/07/14 09:26:18;;;;;;;3.60;1.20;;;34.70;55.70;;;;;;5031579;28;20601;-76
2022/07/14 09:28:49;;;;;;;2.23;0.97;;;35.10;56.50;;;;;;5032511;28;20638;-76
2022/07/14 09:31:26;;;;;;;3.70;1.30;;;35.70;56.90;;;;;;5031756;28;20654;-75
2022/07/14 09:33:57;;;;;;;3.80;0.97;;;36.20;55.40;;;;;;5032207;28;21135;-76
2022/07/14 09:36:32;;;;;;;2.90;0.90;;;36.50;53.80;;;;;;5032638;28;20966;-76
2022/07/14 09:39:03;;;;;;;3.67;0.93;;;36.70;53.50;;;;;;5032043;28;20932;-75
2022/07/14 09:41:49;;;;;;;3.87;1.20;;;36.70;51.40;;;;;;5031220;28;20585;-75
2022/07/14 09:44:17;;;;;;;4.90;0.80;;;36.60;48.90;;;;;;5030152;28;20947;-75
2022/07/14 09:46:44;;;;;;;4.27;1.10;;;36.30;49.00;;;;;;5031794;28;20579;-76
2022/07/14 09:49:10;;;;;;;3.90;0.80;;;35.90;48.00;;;;;;5032005;28;20591;-76
2022/07/14 09:51:55;;;;;;;4.03;0.97;;;35.60;47.70;;;;;;5030496;28;21245;-75
2022/07/14 09:54:44;;;;;;;3.37;1.20;;;35.30;48.40;;;;;;5001343;28;20594;-73
2022/07/14 09:57:26;;;;;;;2.67;0.90;;;34.80;48.10;;;;;;5033259;28;20569;-77
2022/07/14 09:59:56;;;;;;;5.90;1.27;;;34.50;48.10;;;;;;5031461;28;21155;-75
2022/07/14 10:02:30;;;;;;;4.07;1.17;;;34.30;48.70;;;;;;5032293;28;20567;-75
2022/07/14 10:05:01;;;;;;;3.47;1.10;;;34.10;48.60;;;;;;5029574;28;20622;-76
2022/07/14 10:07:32;;;;;;;3.50;1.27;;;33.90;48.70;;;;;;5031359;28;20585;-75
2022/07/14 10:10:12;;;;;;;3.63;0.83;;;33.80;49.00;;;;;;5031314;28;20596;-75
2022/07/14 10:12:41;;;;;;;4.10;1.20;;;33.70;48.70;;;;;;5031284;28;20627;-75
2022/07/14 10:15:09;;;;;;;4.77;1.30;;;33.70;48.50;;;;;;5029797;28;20613;-75
2022/07/14 10:17:36;;;;;;;3.30;1.00;;;33.70;48.70;;;;;;5031663;28;21132;-75
2022/07/14 10:20:04;;;;;;;3.77;1.30;;;33.90;48.90;;;;;;5031084;28;20577;-75
2022/07/14 10:22:30;;;;;;;3.43;1.07;;;34.00;48.90;;;;;;5031434;28;21134;-75
2022/07/14 10:24:57;;;;;;;3.77;1.03;;;34.10;48.60;;;;;;5029689;28;20595;-76
2022/07/14 10:27:25;;;;;;;4.40;1.50;;;34.10;48.10;;;;;;5030189;28;20638;-76
2022/07/14 10:29:59;;;;;;;4.73;1.37;;;34.10;47.60;;;;;;5031098;28;20581;-75
2022/07/14 10:32:50;;;;;;;3.63;1.10;;;34.10;47.60;;;;;;5013609;28;20633;-75
2022/07/14 10:35:18;;;;;;;3.37;1.10;;;34.10;45.10;;;;;;5030692;28;20637;-75
2022/07/14 10:38:02;;;;;;;2.67;0.97;;;34.00;45.60;;;;;;5031249;28;20565;-75
2022/07/14 10:40:33;;;;;;;3.67;0.90;;;34.00;46.20;;;;;;5031301;28;20565;-76
2022/07/14 10:43:06;;;;;;;4.30;0.77;;;34.20;45.60;;;;;;5031310;28;20565;-76
2022/07/14 10:45:32;;;;;;;5.17;0.97;;;34.40;45.10;;;;;;5030658;28;20612;-76
2022/07/14 10:47:58;;;;;;;2.73;0.90;;;34.70;45.30;;;;;;5031108;28;20579;-76
2022/07/14 10:50:26;;;;;;;1.90;1.07;;;35.00;44.70;;;;;;5029669;28;20607;-76
2022/07/14 10:52:55;;;;;;;7.13;0.90;;;35.40;44.70;;;;;;5030795;28;20658;-76
2022/07/14 10:55:27;;;;;;;3.87;1.10;;;35.80;43.80;;;;;;5033291;28;20596;-75
2022/07/14 10:57:58;;;;;;;2.17;0.80;;;36.20;44.00;;;;;;5033793;28;21128;-76
2022/07/14 11:00:47;;;;;;;2.30;0.70;;;36.60;43.60;;;;;;5033496;28;20584;-75
2022/07/14 11:03:39;;;;;;;2.00;0.80;;;37.10;43.30;;;;;;5033531;28;20572;-76
2022/07/14 11:06:08;;;;;;;5.47;1.13;;;37.40;41.40;;;;;;5033995;28;20572;-76
2022/07/14 11:08:41;;;;;;;4.30;0.90;;;37.60;41.20;;;;;;5034831;28;20567;-76
2022/07/14 11:11:23;;;;;;;2.73;1.00;;;37.70;40.30;;;;;;5034362;28;20683;-76
2022/07/14 11:14:01;;;;;;;2.63;1.13;;;37.70;40.00;;;;;;5034716;28;21262;-76
2022/07/14 11:16:46;;;;;;;2.73;0.80;;;37.70;37.90;;;;;;5034591;28;20571;-75
2022/07/14 11:19:30;;;;;;;3.33;1.20;;;37.80;39.80;;;;;;5016813;28;20572;-75
2022/07/14 11:22:20;;;;;;;1.80;0.80;;;37.90;39.00;;;;;;5034016;28;20602;-75
2022/07/14 11:24:51;;;;;;;3.70;1.30;;;37.90;39.40;;;;;;5034147;28;20610;-75
2022/07/14 11:27:47;;;;;;;3.80;1.10;;;37.90;38.60;;;;;;5034393;28;20575;-76
2022/07/14 11:30:30;;;;;;;3.70;0.80;;;37.70;38.20;;;;;;5032644;28;20578;-76
2022/07/14 11:33:08;;;;;;;3.17;1.17;;;37.60;38.00;;;;;;5034121;28;21005;-76
2022/07/14 11:38:40;;;;;;;2.87;1.10;;;37.20;37.40;;;;;;5033697;28;20607;-75
2022/07/14 11:41:15;;;;;;;3.00;1.17;;;37.10;37.90;;;;;;5049411;28;20602;-76
2022/07/14 11:43:46;;;;;;;8.40;1.43;;;37.00;37.20;;;;;;5032969;28;20618;-76
2022/07/14 11:46:15;;;;;;;4.60;1.13;;;36.80;36.40;;;;;;5033799;28;20564;-76
2022/07/14 11:48:48;;;;;;;3.40;1.17;;;36.70;36.50;;;;;;5032713;28;20574;-76
2022/07/14 11:51:29;;;;;;;3.43;1.30;;;36.60;36.20;;;;;;5034084;28;20618;-76
2022/07/14 11:54:00;;;;;;;1.90;0.70;;;36.50;36.50;;;;;;5033242;28;20698;-76
2022/07/14 11:56:29;;;;;;;4.13;0.90;;;36.40;36.60;;;;;;5032550;28;20619;-76
2022/07/14 11:59:03;;;;;;;2.00;0.73;;;36.40;36.80;;;;;;5033984;28;20568;-76
2022/07/14 12:01:38;;;;;;;2.57;0.87;;;36.30;36.50;;;;;;5033488;28;20990;-76
2022/07/14 12:04:06;;;;;;;3.93;0.93;;;36.20;35.80;;;;;;5032243;28;20615;-76
2022/07/14 12:06:32;;;;;;;2.03;0.80;;;36.20;35.70;;;;;;5033611;28;20583;-76
2022/07/14 12:08:58;;;;;;;2.73;1.27;;;36.00;36.50;;;;;;5033553;28;20631;-76
2022/07/14 12:11:24;;;;;;;2.27;0.87;;;35.90;36.70;;;;;;5033116;28;20615;-76
2022/07/14 12:13:53;;;;;;;1.80;0.80;;;35.70;36.10;;;;;;5033432;28;20174;-76
2022/07/14 12:16:20;;;;;;;2.40;1.00;;;35.60;36.80;;;;;;5033016;28;20173;-76
2022/07/14 12:18:47;;;;;;;2.20;1.10;;;35.50;36.70;;;;;;5033188;28;20564;-76
2022/07/14 12:21:14;;;;;;;3.03;1.00;;;35.40;36.30;;;;;;5031865;28;20974;-76
2022/07/14 12:23:54;;;;;;;2.73;1.20;;;35.30;36.20;;;;;;5033303;28;20572;-76
2022/07/14 12:26:22;;;;;;;2.57;1.03;;;35.10;36.30;;;;;;5031679;28;20583;-76
2022/07/14 12:28:54;;;;;;;6.87;1.27;;;35.00;36.10;;;;;;5034253;28;20576;-75
2022/07/14 12:31:21;;;;;;;2.10;0.80;;;34.80;35.80;;;;;;5032875;28;20581;-76
2022/07/14 12:33:48;;;;;;;2.57;1.30;;;34.50;35.90;;;;;;5032966;28;20634;-76
2022/07/14 12:36:17;;;;;;;4.77;1.10;;;34.30;36.00;;;;;;5032687;28;20568;-76
2022/07/14 12:38:45;;;;;;;2.60;0.80;;;34.10;36.10;;;;;;5031945;28;20577;-76
2022/07/14 12:41:13;;;;;;;3.67;1.00;;;33.90;36.30;;;;;;5032740;28;20666;-76
2022/07/14 12:43:42;;;;;;;3.07;1.27;;;33.80;36.50;;;;;;5032886;28;21136;-76
2022/07/14 12:46:14;;;;;;;2.30;0.90;;;33.70;36.40;;;;;;5032560;28;20566;-76
2022/07/14 12:48:49;;;;;;;4.40;0.90;;;33.50;36.30;;;;;;5031458;28;20596;-76
2022/07/14 12:51:18;;;;;;;3.93;0.97;;;33.30;36.50;;;;;;5032399;28;20601;-76
2022/07/14 12:54:09;;;;;;;4.13;1.00;;;33.20;36.50;;;;;;5032792;28;20931;-76
2022/07/14 12:56:44;;;;;;;3.50;0.90;;;33.00;36.40;;;;;;5032691;28;20568;-76
2022/07/14 12:59:13;;;;;;;2.23;0.80;;;32.90;36.60;;;;;;5032780;28;20561;-75
2022/07/14 13:01:50;;;;;;;3.20;0.90;;;32.70;36.60;;;;;;5032143;28;20577;-75
2022/07/14 13:04:34;;;;;;;2.73;1.03;;;32.50;36.90;;;;;;5030708;28;20706;-75
2022/07/14 13:07:21;;;;;;;11.23;1.60;;;32.40;37.00;;;;;;5032716;28;20564;-76
2022/07/14 13:10:07;;;;;;;2.20;0.93;;;32.20;36.90;;;;;;5031884;28;20953;-77